Terminal Aerodrome Forecast
Issued by NWS Sterling, VA

Current Version | Previous Version | Text Only | Print | Product List | Glossary Off
Versions: 1 2 3 4 5 6 7 8 9 10 11 12 13 14 15 16 17 18 19 20 21

000
FTUS41 KLWX 271723
TAFMRB
TAF
KMRB 271723Z 2718/2818 08004KT P6SM OVC015
     FM280000 00000KT P6SM OVC015
     FM280900 00000KT 3SM BR OVC008
     FM281500 08005KT P6SM -SHRA OVC015=

USA.gov is the U.S. government's official web portal to all federal, state and local government web resources and services.